createdAt,value
2024-01-12T00:02:08.599Z,24.05
2024-01-12T00:05:12.092Z,24.98
2024-01-12T00:08:16.561Z,22.48
2024-01-12T00:11:20.045Z,20.92
2024-01-12T00:14:23.436Z,21.17
2024-01-12T00:17:29.414Z,24.65
2024-01-12T00:20:33.462Z,24.58
2024-01-12T00:23:36.874Z,22.20
2024-01-12T00:26:40.227Z,24.17
2024-01-12T00:29:43.873Z,21.67
2024-01-12T00:32:50.049Z,22.65
2024-01-12T00:35:53.724Z,20.42
2024-01-12T00:38:56.825Z,26.20
2024-01-12T00:42:00.296Z,24.50
2024-01-12T00:45:05.406Z,26.92
2024-01-12T00:51:15.131Z,27.42
2024-01-12T00:54:24.367Z,24.58
2024-01-12T00:57:27.509Z,22.27
2024-01-12T01:00:32.486Z,24.17
2024-01-12T01:03:39.372Z,71.87
2024-01-12T01:06:42.976Z,27.45
2024-01-12T01:09:46.018Z,39.72
2024-01-12T01:12:49.279Z,35.13
2024-01-12T01:15:52.247Z,24.08
2024-01-12T01:18:55.701Z,22.35
2024-01-12T01:22:01.122Z,24.73
2024-01-12T01:25:06.042Z,23.80
2024-01-12T01:28:09.182Z,23.62
2024-01-12T01:31:13.596Z,26.33
2024-01-12T01:34:17.376Z,22.83
2024-01-12T01:37:28.301Z,27.87
2024-01-12T01:40:31.661Z,29.63
2024-01-12T01:43:36.005Z,26.57
2024-01-12T01:46:39.051Z,25.73
2024-01-12T01:49:45.664Z,21.25
2024-01-12T01:52:48.733Z,22.58
2024-01-12T01:55:52.187Z,20.35
2024-01-12T01:58:55.299Z,20.60
2024-01-12T02:01:59.838Z,20.88
2024-01-12T02:05:04.542Z,21.97
2024-01-12T02:08:08.336Z,18.60
2024-01-12T02:11:11.541Z,21.17
2024-01-12T02:14:14.794Z,19.70
2024-01-12T02:17:21.716Z,18.05
2024-01-12T02:20:24.872Z,22.90
2024-01-12T02:23:28.268Z,22.02
2024-01-12T02:26:31.286Z,20.00
2024-01-12T02:29:34.635Z,22.20
2024-01-12T02:32:39.577Z,21.70
2024-01-12T02:35:44.540Z,23.67
2024-01-12T02:38:50.310Z,23.70
2024-01-12T02:41:55.959Z,20.40
2024-01-12T02:48:04.217Z,18.23
2024-01-12T02:51:08.624Z,22.58
2024-01-12T02:54:12.022Z,21.23
2024-01-12T02:57:15.362Z,19.35
2024-01-12T03:00:18.993Z,23.50
2024-01-12T03:03:23.093Z,21.95
2024-01-12T03:06:26.503Z,20.33
2024-01-12T03:09:29.703Z,25.92
2024-01-12T03:12:33.017Z,23.02
2024-01-12T03:15:38.455Z,19.80
2024-01-12T03:18:41.835Z,21.37
2024-01-12T03:21:45.679Z,22.40
2024-01-12T03:24:49.904Z,21.40
2024-01-12T03:27:52.839Z,21.12
2024-01-12T03:30:56.810Z,17.77
2024-01-12T03:34:00.534Z,18.48
2024-01-12T03:37:04.158Z,20.37
2024-01-12T03:40:08.471Z,18.90
2024-01-12T03:43:12.934Z,16.58
2024-01-12T03:46:15.956Z,22.00
2024-01-12T03:49:20.481Z,20.58
2024-01-12T03:52:23.662Z,19.05
2024-01-12T03:55:27.261Z,17.20
2024-01-12T03:58:31.552Z,13.90
2024-01-12T04:01:34.866Z,15.53
2024-01-12T04:04:38.141Z,13.30
2024-01-12T04:07:41.216Z,22.15
2024-01-12T04:10:46.743Z,16.45
2024-01-12T04:13:49.815Z,19.10
2024-01-12T04:16:53.078Z,18.70
2024-01-12T04:19:56.376Z,16.65
2024-01-12T04:23:00.108Z,14.15
2024-01-12T04:26:03.271Z,14.90
2024-01-12T04:29:07.148Z,19.50
2024-01-12T04:35:15.819Z,17.95
2024-01-12T04:38:20.799Z,17.40
2024-01-12T04:41:24.242Z,14.55
2024-01-12T04:44:27.266Z,18.73
2024-01-12T04:47:31.731Z,15.48
2024-01-12T04:50:35.228Z,19.13
2024-01-12T04:53:38.856Z,13.82
2024-01-12T04:56:42.435Z,15.30
2024-01-12T04:59:45.865Z,12.00
2024-01-12T05:02:49.323Z,13.45
2024-01-12T05:05:52.736Z,14.45
2024-01-12T05:08:57.554Z,10.32
2024-01-12T05:12:06.466Z,12.80
2024-01-12T05:15:10.170Z,16.75
2024-01-12T05:18:13.651Z,12.45
2024-01-12T05:21:19.705Z,11.25
2024-01-12T05:24:23.157Z,11.90
2024-01-12T05:27:26.794Z,10.02
2024-01-12T05:30:31.926Z,11.35
2024-01-12T05:33:37.286Z,10.35
2024-01-12T05:39:47.278Z,7.53
2024-01-12T05:42:50.559Z,8.85
2024-01-12T05:45:55.741Z,12.50
2024-01-12T05:49:05.450Z,10.45
2024-01-12T05:52:10.036Z,10.43
2024-01-12T05:55:13.352Z,13.90
2024-01-12T05:58:17.047Z,9.07
2024-01-12T06:01:21.802Z,16.42
2024-01-12T06:04:25.985Z,15.25
2024-01-12T06:07:28.958Z,12.50
2024-01-12T06:10:32.232Z,10.25
2024-01-12T06:13:35.241Z,10.45
2024-01-12T06:16:41.573Z,10.43
2024-01-12T06:19:44.801Z,9.95
2024-01-12T06:22:49.346Z,8.75
2024-01-12T06:25:52.565Z,10.55
2024-01-12T06:28:55.888Z,7.18
2024-01-12T06:31:58.822Z,10.70
2024-01-12T06:35:02.165Z,14.70
2024-01-12T06:38:05.259Z,8.77
2024-01-12T06:41:09.533Z,13.02
2024-01-12T06:44:14.481Z,10.82
2024-01-12T06:47:17.852Z,12.75
2024-01-12T06:50:21.851Z,8.00
2024-01-12T06:53:25.203Z,10.20
2024-01-12T06:56:28.485Z,9.95
2024-01-12T06:59:31.863Z,9.60
2024-01-12T07:02:35.877Z,13.30
2024-01-12T07:05:39.567Z,9.95
2024-01-12T07:08:42.658Z,12.13
2024-01-12T07:11:46.590Z,11.30
2024-01-12T07:14:50.189Z,11.57
2024-01-12T07:17:54.211Z,11.52
2024-01-12T07:20:58.840Z,12.13
2024-01-12T07:24:03.082Z,14.68
2024-01-12T07:27:06.744Z,9.68
2024-01-12T07:30:10.343Z,12.57
2024-01-12T07:33:14.471Z,13.30
2024-01-12T07:36:17.861Z,10.63
2024-01-12T07:39:21.388Z,8.70
2024-01-12T07:42:28.150Z,10.05
2024-01-12T07:45:38.854Z,9.40
2024-01-12T07:48:42.896Z,14.48
2024-01-12T07:51:50.178Z,13.73
2024-01-12T07:54:55.182Z,12.82
2024-01-12T07:58:00.613Z,13.48
2024-01-12T08:01:08.672Z,13.48
2024-01-12T08:07:16.850Z,15.35
2024-01-12T08:10:21.522Z,16.92
2024-01-12T08:13:27.728Z,17.98
2024-01-12T08:16:32.638Z,14.63
2024-01-12T08:19:38.864Z,15.63
2024-01-12T08:22:42.463Z,16.05
2024-01-12T08:25:46.929Z,15.63
2024-01-12T08:28:56.619Z,15.48
2024-01-12T08:32:02.272Z,15.90
2024-01-12T08:35:07.848Z,16.40
2024-01-12T08:38:13.460Z,17.65
2024-01-12T08:41:18.563Z,20.30
2024-01-12T08:44:21.682Z,20.77
2024-01-12T08:47:25.289Z,25.10
2024-01-12T08:50:30.824Z,29.27
2024-01-12T08:53:34.158Z,28.92
2024-01-12T08:56:36.842Z,22.83
2024-01-12T08:59:40.238Z,19.02
2024-01-12T09:02:45.825Z,17.80
2024-01-12T09:05:49.280Z,21.90
2024-01-12T09:08:53.319Z,20.58
2024-01-12T09:11:56.769Z,19.23
2024-01-12T09:15:03.920Z,19.12
2024-01-12T09:18:08.364Z,17.65
2024-01-12T09:21:16.478Z,16.45
2024-01-12T09:24:19.930Z,18.73
2024-01-12T09:27:23.133Z,16.80
2024-01-12T09:30:26.449Z,14.52
2024-01-12T09:33:31.727Z,23.12
2024-01-12T09:39:37.908Z,18.25
2024-01-12T09:42:43.517Z,18.98
2024-01-12T09:45:51.912Z,18.00
2024-01-12T09:48:55.308Z,23.87
2024-01-12T09:51:59.783Z,26.73
2024-01-12T09:55:03.204Z,24.20
2024-01-12T09:58:08.812Z,27.70
2024-01-12T10:01:13.448Z,18.75
2024-01-12T10:04:16.843Z,20.90
2024-01-12T10:07:20.420Z,21.10
2024-01-12T10:10:25.622Z,20.33
2024-01-12T10:13:29.421Z,19.00
2024-01-12T10:16:33.975Z,22.53
2024-01-12T10:19:37.120Z,22.27
2024-01-12T10:22:40.352Z,22.98
2024-01-12T10:25:43.345Z,21.75
2024-01-12T10:28:46.642Z,24.45
2024-01-12T10:31:49.668Z,25.00
2024-01-12T10:34:54.373Z,22.70
2024-01-12T10:38:01.767Z,21.95
2024-01-12T10:41:08.620Z,17.73
2024-01-12T10:44:16.268Z,19.98
2024-01-12T10:47:23.412Z,18.55
2024-01-12T10:50:27.019Z,21.85
2024-01-12T10:53:49.022Z,20.45
2024-01-12T10:56:52.689Z,20.00
2024-01-12T10:59:58.075Z,21.35
2024-01-12T11:06:08.996Z,20.35
2024-01-12T11:09:17.747Z,17.75
2024-01-12T11:12:40.246Z,20.30
2024-01-12T11:15:43.913Z,15.77
2024-01-12T11:18:47.269Z,16.77
2024-01-12T11:21:50.401Z,17.12
2024-01-12T11:24:55.206Z,15.77
2024-01-12T11:28:01.675Z,15.07
2024-01-12T11:31:05.141Z,14.73
2024-01-12T11:34:08.409Z,9.32
2024-01-12T11:37:12.208Z,6.37
2024-01-12T11:40:18.488Z,10.20
2024-01-12T11:43:27.411Z,11.52
2024-01-12T11:46:30.684Z,7.70
2024-01-12T11:49:35.481Z,9.13
2024-01-12T11:52:38.586Z,7.57
2024-01-12T11:55:42.094Z,8.27
2024-01-12T11:58:45.140Z,12.02
2024-01-12T12:01:48.829Z,10.70
2024-01-12T12:04:55.594Z,8.65
2024-01-12T12:08:01.800Z,9.10
2024-01-12T12:11:06.488Z,9.63
2024-01-12T12:14:09.872Z,9.32
2024-01-12T12:17:13.241Z,6.53
2024-01-12T12:20:17.140Z,7.60
2024-01-12T12:23:20.449Z,6.78
2024-01-12T12:26:23.553Z,7.28
2024-01-12T12:29:30.041Z,5.32
2024-01-12T12:32:33.203Z,7.35
2024-01-12T12:35:36.784Z,10.02
2024-01-12T12:38:40.812Z,6.37
2024-01-12T12:41:44.492Z,10.73
2024-01-12T12:44:47.557Z,7.22
2024-01-12T12:47:51.663Z,5.25
2024-01-12T12:50:54.956Z,6.07
2024-01-12T12:53:58.277Z,6.90
2024-01-12T12:57:03.811Z,8.27
2024-01-12T13:00:13.726Z,4.28
2024-01-12T13:03:18.537Z,6.85
2024-01-12T13:06:22.228Z,6.68
2024-01-12T13:09:27.531Z,7.57
2024-01-12T13:12:31.810Z,8.80
2024-01-12T13:15:35.557Z,5.43
2024-01-12T13:18:39.288Z,6.57
2024-01-12T13:21:43.768Z,6.10
2024-01-12T13:24:47.060Z,7.55
2024-01-12T13:27:50.061Z,6.65
2024-01-12T13:30:53.357Z,7.12
2024-01-12T13:33:56.473Z,12.55
2024-01-12T13:37:04.189Z,11.65
2024-01-12T13:40:07.830Z,8.93
2024-01-12T13:43:11.483Z,5.82
2024-01-12T13:46:14.873Z,7.45
2024-01-12T13:49:18.805Z,7.22
2024-01-12T13:52:22.188Z,6.10
2024-01-12T13:55:25.673Z,8.45
2024-01-12T13:58:29.273Z,9.27
2024-01-12T14:01:35.025Z,10.13
2024-01-12T14:04:38.270Z,6.07
2024-01-12T14:07:44.573Z,6.70
2024-01-12T14:10:50.266Z,8.20
2024-01-12T14:13:57.662Z,7.28
2024-01-12T14:17:01.855Z,7.50
2024-01-12T14:20:05.520Z,7.30
2024-01-12T14:23:10.567Z,10.73
2024-01-12T14:26:16.538Z,8.37
2024-01-12T14:29:22.885Z,6.82
2024-01-12T14:32:27.676Z,5.90
2024-01-12T14:35:32.469Z,13.45
2024-01-12T14:38:36.948Z,6.22
2024-01-12T14:41:40.371Z,8.77
2024-01-12T14:44:43.949Z,8.82
2024-01-12T14:47:48.553Z,6.72
2024-01-12T14:50:53.336Z,7.30
2024-01-12T14:53:56.940Z,7.97
2024-01-12T14:57:00.637Z,8.30
2024-01-12T15:00:07.969Z,9.40
2024-01-12T15:03:12.165Z,3.95
2024-01-12T15:06:16.278Z,7.40
2024-01-12T15:09:20.218Z,4.55
2024-01-12T15:12:23.601Z,7.15
2024-01-12T15:15:27.664Z,6.53
2024-01-12T15:18:31.461Z,4.62
2024-01-12T15:21:34.881Z,8.05
2024-01-12T15:24:38.192Z,10.00
2024-01-12T15:27:41.152Z,10.13
2024-01-12T15:30:45.136Z,7.45
2024-01-12T15:33:49.199Z,13.10
2024-01-12T15:36:52.588Z,5.43
2024-01-12T15:39:55.593Z,5.00
2024-01-12T15:42:58.920Z,6.10
2024-01-12T15:46:03.775Z,5.80
2024-01-12T15:49:07.594Z,7.75
2024-01-12T15:52:14.663Z,6.18
2024-01-12T15:55:17.988Z,10.02
2024-01-12T15:58:21.858Z,7.25
2024-01-12T16:01:26.194Z,6.78
2024-01-12T16:04:29.796Z,5.15
2024-01-12T16:07:32.844Z,10.38
2024-01-12T16:10:38.169Z,4.82
2024-01-12T16:13:42.224Z,7.95
2024-01-12T16:16:45.814Z,6.97
2024-01-12T16:19:50.288Z,7.82
2024-01-12T16:22:53.966Z,10.50
2024-01-12T16:25:58.389Z,8.95
2024-01-12T16:29:01.717Z,9.15
2024-01-12T16:32:09.117Z,2.78
2024-01-12T16:35:13.945Z,5.60
2024-01-12T16:38:20.747Z,5.00
2024-01-12T16:41:27.720Z,9.27
2024-01-12T16:44:31.106Z,7.55
2024-01-12T16:47:34.644Z,4.53
2024-01-12T16:50:37.766Z,5.55
2024-01-12T16:53:41.133Z,6.03
2024-01-12T16:56:44.294Z,4.30
2024-01-12T16:59:49.168Z,7.90
2024-01-12T17:02:55.029Z,7.65
2024-01-12T17:06:01.729Z,7.22
2024-01-12T17:09:06.239Z,5.25
2024-01-12T17:12:09.799Z,4.40
2024-01-12T17:15:17.268Z,5.82
2024-01-12T17:18:26.397Z,6.55
2024-01-12T17:21:35.490Z,6.28
2024-01-12T17:24:38.922Z,8.23
2024-01-12T17:27:41.893Z,6.90
2024-01-12T17:30:46.107Z,6.68
2024-01-12T17:33:51.366Z,5.45
2024-01-12T17:39:58.768Z,14.70
2024-01-12T17:43:02.019Z,10.40
2024-01-12T17:46:05.032Z,6.72
2024-01-12T17:49:08.752Z,6.90
2024-01-12T17:52:11.817Z,6.60
2024-01-12T17:55:15.116Z,5.87
2024-01-12T17:58:18.390Z,6.28
2024-01-12T18:01:22.433Z,7.95
2024-01-12T18:04:26.070Z,6.30
2024-01-12T18:07:29.266Z,8.07
2024-01-12T18:10:32.600Z,5.00
2024-01-12T18:13:37.234Z,6.95
2024-01-12T18:16:43.278Z,4.53
2024-01-12T18:19:48.848Z,4.97
2024-01-12T18:22:52.749Z,5.35
2024-01-12T18:25:55.690Z,5.50
2024-01-12T18:28:59.024Z,7.40
2024-01-12T18:32:02.332Z,7.43
2024-01-12T18:35:06.657Z,4.15
2024-01-12T18:38:11.446Z,4.37
2024-01-12T18:41:14.834Z,7.15
2024-01-12T18:44:18.572Z,6.35
2024-01-12T18:47:22.279Z,6.47
2024-01-12T18:50:25.380Z,2.83
2024-01-12T18:53:29.047Z,4.30
2024-01-12T18:56:32.092Z,5.80
2024-01-12T18:59:36.780Z,4.43
2024-01-12T19:02:39.764Z,4.12
2024-01-12T19:05:47.216Z,6.57
2024-01-12T19:08:50.412Z,4.53
2024-01-12T19:11:54.449Z,3.92
2024-01-12T19:14:57.279Z,4.75
2024-01-12T19:18:00.631Z,4.72
2024-01-12T19:21:03.905Z,5.00
2024-01-12T19:24:07.563Z,4.20
2024-01-12T19:27:11.257Z,7.10
2024-01-12T19:30:16.321Z,6.93
2024-01-12T19:33:19.574Z,4.75
2024-01-12T19:36:24.195Z,7.53
2024-01-12T19:39:27.179Z,8.02
2024-01-12T19:42:30.918Z,8.02
2024-01-12T19:45:33.930Z,8.07
2024-01-12T19:48:37.838Z,11.57
2024-01-12T19:51:41.136Z,14.05
2024-01-12T19:54:44.448Z,15.80
2024-01-12T19:57:47.892Z,18.70
2024-01-12T20:00:51.218Z,17.33
2024-01-12T20:03:55.414Z,11.12
2024-01-12T20:06:58.889Z,13.80
2024-01-12T20:10:05.424Z,12.75
2024-01-12T20:13:08.440Z,10.20
2024-01-12T20:16:13.077Z,11.40
2024-01-12T20:19:16.526Z,11.57
2024-01-12T20:22:21.147Z,15.13
2024-01-12T20:25:24.282Z,16.15
2024-01-12T20:28:28.512Z,15.98
2024-01-12T20:31:31.628Z,17.52
2024-01-12T20:34:37.196Z,14.80
2024-01-12T20:37:40.852Z,13.27
2024-01-12T20:40:55.893Z,10.05
2024-01-12T20:43:58.931Z,15.43
2024-01-12T20:47:02.997Z,9.98
2024-01-12T20:50:06.845Z,12.52
2024-01-12T20:53:10.110Z,7.78
2024-01-12T20:56:13.606Z,3.85
2024-01-12T20:59:16.984Z,13.62
2024-01-12T21:02:20.263Z,11.77
2024-01-12T21:05:23.608Z,10.73
2024-01-12T21:08:29.291Z,14.55
2024-01-12T21:11:34.116Z,9.32
2024-01-12T21:14:37.444Z,15.80
2024-01-12T21:17:41.806Z,12.40
2024-01-12T21:20:46.944Z,13.13
2024-01-12T21:23:50.479Z,10.93
2024-01-12T21:26:53.857Z,10.32
2024-01-12T21:29:57.366Z,12.23
2024-01-12T21:33:00.570Z,16.73
2024-01-12T21:36:04.137Z,18.80
2024-01-12T21:39:12.460Z,15.18
2024-01-12T21:42:16.136Z,8.82
2024-01-12T21:45:19.245Z,9.63
2024-01-12T21:48:22.980Z,14.77
2024-01-12T21:51:26.175Z,13.30
2024-01-12T21:54:29.501Z,17.33
2024-01-12T21:57:32.478Z,11.43
2024-01-12T22:00:35.900Z,14.98
2024-01-12T22:03:39.429Z,10.80
2024-01-12T22:06:42.488Z,14.95
2024-01-12T22:09:46.600Z,6.93
2024-01-12T22:12:50.887Z,17.12
2024-01-12T22:15:55.416Z,14.83
2024-01-12T22:19:00.407Z,16.30
2024-01-12T22:22:04.128Z,18.25
2024-01-12T22:25:08.443Z,13.30
2024-01-12T22:28:12.901Z,17.20
2024-01-12T22:31:15.902Z,13.95
2024-01-12T22:34:20.469Z,16.67
2024-01-12T22:37:23.472Z,10.82
2024-01-12T22:40:26.783Z,12.43
2024-01-12T22:43:29.891Z,17.62
2024-01-12T22:46:33.176Z,13.32
2024-01-12T22:49:36.301Z,14.55
2024-01-12T22:52:42.901Z,16.23
2024-01-12T22:55:46.047Z,13.75
2024-01-12T22:58:49.723Z,12.55
2024-01-12T23:01:52.620Z,13.35
2024-01-12T23:04:57.347Z,12.02
2024-01-12T23:08:01.866Z,16.77
2024-01-12T23:11:05.114Z,17.83
2024-01-12T23:14:08.098Z,14.43
2024-01-12T23:17:11.444Z,15.02
2024-01-12T23:20:18.964Z,14.15
2024-01-12T23:23:23.595Z,19.67
2024-01-12T23:26:26.862Z,16.92
2024-01-12T23:29:35.725Z,19.10
2024-01-12T23:32:49.933Z,15.45
2024-01-12T23:35:54.862Z,14.87
2024-01-12T23:38:58.053Z,17.50
2024-01-12T23:42:01.711Z,17.90
2024-01-12T23:45:05.202Z,15.48
2024-01-12T23:48:12.024Z,17.12
2024-01-12T23:51:18.589Z,17.80
2024-01-12T23:54:23.639Z,19.93
2024-01-12T23:57:29.626Z,15.20
